createdAt,value
2024-05-09T00:00:36.070Z,13.31
2024-05-09T00:03:27.984Z,13.25
2024-05-09T00:05:55.792Z,13.18
2024-05-09T00:08:24.991Z,13.11
2024-05-09T00:10:57.607Z,13.05
2024-05-09T00:13:27.397Z,12.99
2024-05-09T00:15:57.594Z,12.90
2024-05-09T00:18:26.294Z,12.85
2024-05-09T00:20:56.874Z,12.80
2024-05-09T00:23:34.173Z,12.74
2024-05-09T00:26:02.185Z,12.72
2024-05-09T00:28:35.290Z,12.69
2024-05-09T00:31:03.382Z,12.67
2024-05-09T00:33:32.128Z,12.65
2024-05-09T00:36:05.639Z,12.63
2024-05-09T00:38:36.188Z,12.62
2024-05-09T00:41:05.617Z,12.61
2024-05-09T00:43:34.498Z,12.63
2024-05-09T00:46:05.328Z,12.63
2024-05-09T00:48:33.579Z,12.63
2024-05-09T00:51:02.834Z,12.61
2024-05-09T00:53:31.095Z,12.59
2024-05-09T00:55:59.856Z,12.58
2024-05-09T00:58:29.262Z,12.57
2024-05-09T01:01:02.010Z,12.56
2024-05-09T01:03:30.134Z,12.54
2024-05-09T01:06:06.227Z,12.50
2024-05-09T01:08:35.378Z,12.47
2024-05-09T01:11:06.464Z,12.47
2024-05-09T01:13:36.912Z,12.45
2024-05-09T01:16:06.793Z,12.43
2024-05-09T01:18:35.698Z,12.40
2024-05-09T01:21:06.335Z,12.39
2024-05-09T01:23:36.003Z,12.37
2024-05-09T01:26:04.115Z,12.35
2024-05-09T01:28:35.419Z,12.34
2024-05-09T01:31:04.313Z,12.34
2024-05-09T01:33:33.710Z,12.33
2024-05-09T01:36:02.909Z,12.32
2024-05-09T01:38:30.881Z,12.30
2024-05-09T01:41:02.085Z,12.28
2024-05-09T01:43:33.100Z,12.27
2024-05-09T01:46:08.741Z,12.30
2024-05-09T01:48:37.237Z,12.30
2024-05-09T01:51:07.901Z,12.30
2024-05-09T01:53:44.919Z,12.29
2024-05-09T01:56:34.369Z,12.28
2024-05-09T01:59:05.114Z,12.25
2024-05-09T02:01:55.625Z,12.23
2024-05-09T02:04:27.422Z,12.20
2024-05-09T02:06:59.182Z,12.17
2024-05-09T02:09:28.807Z,12.14
2024-05-09T02:12:06.762Z,12.12
2024-05-09T02:14:37.509Z,12.11
2024-05-09T02:17:06.694Z,12.10
2024-05-09T02:19:36.387Z,12.06
2024-05-09T02:22:10.413Z,12.06
2024-05-09T02:24:58.405Z,12.05
2024-05-09T02:27:26.943Z,12.03
2024-05-09T02:30:04.703Z,12.06
2024-05-09T02:32:35.336Z,12.12
2024-05-09T02:35:04.762Z,12.18
2024-05-09T02:37:34.836Z,12.25
2024-05-09T02:40:05.631Z,12.35
2024-05-09T02:42:34.117Z,12.40
2024-05-09T02:45:03.957Z,12.46
2024-05-09T02:47:51.686Z,12.53
2024-05-09T02:50:29.595Z,12.57
2024-05-09T02:53:05.953Z,12.64
2024-05-09T02:55:34.867Z,12.70
2024-05-09T02:58:02.911Z,12.75
2024-05-09T03:00:38.255Z,12.77
2024-05-09T03:03:12.795Z,12.79
2024-05-09T03:05:48.437Z,12.82
2024-05-09T03:08:21.408Z,12.84
2024-05-09T03:10:50.475Z,12.86
2024-05-09T03:13:19.633Z,12.90
2024-05-09T03:15:50.760Z,12.91
2024-05-09T03:18:21.448Z,12.93
2024-05-09T03:20:51.861Z,12.97
2024-05-09T03:23:19.988Z,13.00
2024-05-09T03:25:48.777Z,13.03
2024-05-09T03:28:25.562Z,13.05
2024-05-09T03:30:53.855Z,13.05
2024-05-09T03:33:37.528Z,13.15
2024-05-09T03:36:10.952Z,13.16
2024-05-09T03:38:39.482Z,13.20
2024-05-09T03:41:07.598Z,13.18
2024-05-09T03:43:36.984Z,13.17
2024-05-09T03:46:10.427Z,13.22
2024-05-09T03:48:38.523Z,13.29
2024-05-09T03:51:11.185Z,13.35
2024-05-09T03:53:39.484Z,13.38
2024-05-09T03:56:09.043Z,13.41
2024-05-09T03:58:37.217Z,13.43
2024-05-09T04:01:24.970Z,13.46
2024-05-09T04:03:53.065Z,13.43
2024-05-09T04:06:22.174Z,13.48
2024-05-09T04:08:54.127Z,13.52
2024-05-09T04:11:23.974Z,13.52
2024-05-09T04:13:53.661Z,13.55
2024-05-09T04:16:22.478Z,13.54
2024-05-09T04:18:52.981Z,13.55
2024-05-09T04:21:40.733Z,13.57
2024-05-09T04:24:12.381Z,13.58
2024-05-09T04:26:42.428Z,13.62
2024-05-09T04:29:12.720Z,13.68
2024-05-09T04:31:40.873Z,13.70
2024-05-09T04:34:08.847Z,13.75
2024-05-09T04:36:36.643Z,13.78
2024-05-09T04:39:06.492Z,13.84
2024-05-09T04:41:35.875Z,13.88
2024-05-09T04:44:08.531Z,13.92
2024-05-09T04:46:41.320Z,13.99
2024-05-09T04:49:14.201Z,13.99
2024-05-09T04:51:41.993Z,14.04
2024-05-09T04:54:13.015Z,14.11
2024-05-09T04:56:47.515Z,14.09
2024-05-09T04:59:16.494Z,14.19
2024-05-09T05:01:47.246Z,14.29
2024-05-09T05:04:15.810Z,14.36
2024-05-09T05:06:43.969Z,14.46
2024-05-09T05:09:13.222Z,14.55
2024-05-09T05:11:41.799Z,14.64
2024-05-09T05:14:11.916Z,14.72
2024-05-09T05:16:42.170Z,14.74
2024-05-09T05:19:14.293Z,14.78
2024-05-09T05:21:44.952Z,14.78
2024-05-09T05:24:13.567Z,14.76
2024-05-09T05:26:42.031Z,14.80
2024-05-09T05:29:12.314Z,14.88
2024-05-09T05:31:40.800Z,14.87
2024-05-09T05:34:11.063Z,14.89
2024-05-09T05:36:55.521Z,14.87
2024-05-09T05:39:29.694Z,14.95
2024-05-09T05:41:59.279Z,15.02
2024-05-09T05:44:27.316Z,15.09
2024-05-09T05:46:56.124Z,15.13
2024-05-09T05:49:27.220Z,15.18
2024-05-09T05:51:55.779Z,15.26
2024-05-09T05:54:25.591Z,15.35
2024-05-09T05:56:54.713Z,15.44
2024-05-09T05:59:24.180Z,15.47
2024-05-09T06:01:52.354Z,15.53
2024-05-09T06:04:25.182Z,15.65
2024-05-09T06:06:57.266Z,15.76
2024-05-09T06:09:25.606Z,15.86
2024-05-09T06:11:55.619Z,15.86
2024-05-09T06:14:24.504Z,15.81
2024-05-09T06:16:57.690Z,15.81
2024-05-09T06:19:27.283Z,15.80
2024-05-09T06:21:56.477Z,15.80
2024-05-09T06:24:31.568Z,15.80
2024-05-09T06:27:01.135Z,15.91
2024-05-09T06:29:28.993Z,16.02
2024-05-09T06:32:00.021Z,16.23
2024-05-09T06:34:28.309Z,16.33
2024-05-09T06:36:58.754Z,16.38
2024-05-09T06:39:27.966Z,16.52
2024-05-09T06:41:57.061Z,16.74
2024-05-09T06:44:26.691Z,16.92
2024-05-09T06:46:59.632Z,17.11
2024-05-09T06:49:28.771Z,17.32
2024-05-09T06:51:58.263Z,17.32
2024-05-09T06:54:26.325Z,17.33
2024-05-09T06:56:55.386Z,17.34
2024-05-09T06:59:23.731Z,17.30
2024-05-09T07:02:12.293Z,17.37
2024-05-09T07:04:40.578Z,17.42
2024-05-09T07:07:12.510Z,17.37
2024-05-09T07:09:48.223Z,17.19
2024-05-09T07:12:25.674Z,17.14
2024-05-09T07:14:55.268Z,17.24
2024-05-09T07:17:24.248Z,17.42
2024-05-09T07:19:54.071Z,17.65
2024-05-09T07:22:30.952Z,17.78
2024-05-09T07:25:18.781Z,17.79
2024-05-09T07:27:47.664Z,17.70
2024-05-09T07:30:23.428Z,17.68
2024-05-09T07:32:56.271Z,17.77
2024-05-09T07:35:28.197Z,17.90
2024-05-09T07:37:57.840Z,18.06
2024-05-09T07:40:36.562Z,18.02
2024-05-09T07:43:07.655Z,17.81
2024-05-09T07:45:48.542Z,17.76
2024-05-09T07:53:50.931Z,18.18
2024-05-09T07:56:23.970Z,18.32
2024-05-09T07:58:54.722Z,18.36
2024-05-09T08:01:22.572Z,18.55
2024-05-09T08:03:54.793Z,18.51
2024-05-09T08:06:25.093Z,18.38
2024-05-09T08:08:54.234Z,18.24
2024-05-09T08:11:23.911Z,18.21
2024-05-09T08:13:51.816Z,18.34
2024-05-09T08:16:38.233Z,18.46
2024-05-09T08:19:15.077Z,18.66
2024-05-09T08:21:43.798Z,18.80
2024-05-09T08:24:12.634Z,18.97
2024-05-09T08:26:40.673Z,19.00
2024-05-09T08:29:14.177Z,19.02
2024-05-09T08:31:41.976Z,19.12
2024-05-09T08:34:19.082Z,19.36
2024-05-09T08:36:47.430Z,19.53
2024-05-09T08:39:16.183Z,19.55
2024-05-09T08:41:45.670Z,19.54
2024-05-09T08:44:17.100Z,19.59
2024-05-09T08:46:49.126Z,19.47
2024-05-09T08:49:21.046Z,19.66
2024-05-09T08:51:49.047Z,19.82
2024-05-09T08:54:19.016Z,20.01
2024-05-09T08:56:48.460Z,20.13
2024-05-09T08:59:19.611Z,20.27
2024-05-09T09:01:48.207Z,20.45
2024-05-09T09:04:18.745Z,20.63
2024-05-09T09:06:47.371Z,20.82
2024-05-09T09:09:16.729Z,21.00
2024-05-09T09:11:50.391Z,21.12
2024-05-09T09:14:19.541Z,21.04
2024-05-09T09:16:55.957Z,20.83
2024-05-09T09:19:26.300Z,20.63
2024-05-09T09:22:03.016Z,20.42
2024-05-09T09:24:31.999Z,20.19
2024-05-09T09:27:01.526Z,20.10
2024-05-09T09:29:31.191Z,20.09
2024-05-09T09:32:00.981Z,20.13
2024-05-09T09:34:28.982Z,20.00
2024-05-09T09:36:57.574Z,20.01
2024-05-09T09:39:27.135Z,20.36
2024-05-09T09:41:55.539Z,20.74
2024-05-09T09:44:31.330Z,20.70
2024-05-09T09:46:59.859Z,20.73
2024-05-09T09:49:28.789Z,20.92
2024-05-09T09:52:01.272Z,21.10
2024-05-09T09:54:30.962Z,21.18
2024-05-09T09:57:00.721Z,21.33
2024-05-09T09:59:29.834Z,21.35
2024-05-09T10:01:59.356Z,21.26
2024-05-09T10:04:28.198Z,21.18
2024-05-09T10:07:00.953Z,21.24
2024-05-09T10:09:29.923Z,21.49
2024-05-09T10:12:00.418Z,21.60
2024-05-09T10:14:29.249Z,21.71
2024-05-09T10:16:56.852Z,21.80
2024-05-09T10:19:27.449Z,21.91
2024-05-09T10:21:56.516Z,22.00
2024-05-09T10:24:28.203Z,21.99
2024-05-09T10:27:00.572Z,22.00
2024-05-09T10:29:49.127Z,21.81
2024-05-09T10:32:18.113Z,21.95
2024-05-09T10:34:46.068Z,22.23
2024-05-09T10:37:15.594Z,22.28
2024-05-09T10:39:48.085Z,22.04
2024-05-09T10:42:16.107Z,21.82
2024-05-09T10:44:44.384Z,21.74
2024-05-09T10:47:13.408Z,21.51
2024-05-09T10:49:41.695Z,21.34
2024-05-09T10:52:12.673Z,21.32
2024-05-09T10:54:41.443Z,21.18
2024-05-09T10:57:09.118Z,21.27
2024-05-09T10:59:37.794Z,21.38
2024-05-09T11:02:07.054Z,21.38
2024-05-09T11:04:35.051Z,21.37
2024-05-09T11:07:05.485Z,21.26
2024-05-09T11:09:33.676Z,21.07
2024-05-09T11:12:02.623Z,21.03
2024-05-09T11:14:34.732Z,21.07
2024-05-09T11:17:03.994Z,20.96
2024-05-09T11:19:32.148Z,20.77
2024-05-09T11:22:00.603Z,20.68
2024-05-09T11:24:30.376Z,20.55
2024-05-09T11:26:58.874Z,20.37
2024-05-09T11:29:26.877Z,20.31
2024-05-09T11:31:56.339Z,20.28
2024-05-09T11:34:24.210Z,20.05
2024-05-09T11:36:52.393Z,19.95
2024-05-09T11:39:23.062Z,19.92
2024-05-09T11:41:55.776Z,19.86
2024-05-09T11:44:31.231Z,19.86
2024-05-09T11:47:03.398Z,19.94
2024-05-09T11:49:32.268Z,19.95
2024-05-09T11:52:00.193Z,20.11
2024-05-09T11:54:36.476Z,20.30
2024-05-09T11:57:08.876Z,20.48
2024-05-09T11:59:40.800Z,20.59
2024-05-09T12:02:11.006Z,20.73
2024-05-09T12:04:39.954Z,20.81
2024-05-09T12:07:12.740Z,20.79
2024-05-09T12:09:40.874Z,20.77
2024-05-09T12:12:10.966Z,20.72
2024-05-09T12:14:39.813Z,20.70
2024-05-09T12:17:08.187Z,20.81
2024-05-09T12:19:54.463Z,20.92
2024-05-09T12:22:22.196Z,21.03
2024-05-09T12:24:50.773Z,21.08
2024-05-09T12:27:18.681Z,21.11
2024-05-09T12:29:51.222Z,21.07
2024-05-09T12:32:21.055Z,21.03
2024-05-09T12:34:49.010Z,21.09
2024-05-09T12:37:18.312Z,20.99
2024-05-09T12:39:49.736Z,21.26
2024-05-09T12:42:26.571Z,21.45
2024-05-09T12:44:57.582Z,21.25
2024-05-09T12:47:27.287Z,21.23
2024-05-09T12:49:55.561Z,21.03
2024-05-09T12:52:24.560Z,21.25
2024-05-09T12:54:52.219Z,21.45
2024-05-09T12:57:20.191Z,21.54
2024-05-09T13:00:05.810Z,21.57
2024-05-09T13:02:37.422Z,21.63
2024-05-09T13:05:06.288Z,21.65
2024-05-09T13:07:36.372Z,21.79
2024-05-09T13:10:05.566Z,21.92
2024-05-09T13:12:34.031Z,22.12
2024-05-09T13:15:02.979Z,22.12
2024-05-09T13:17:31.577Z,22.12
2024-05-09T13:20:00.824Z,22.20
2024-05-09T13:22:33.032Z,22.31
2024-05-09T13:25:00.874Z,22.50
2024-05-09T13:27:32.578Z,22.98
2024-05-09T13:30:04.907Z,23.52
2024-05-09T13:32:36.169Z,24.02
2024-05-09T13:35:08.086Z,24.38
2024-05-09T13:37:36.041Z,24.85
2024-05-09T13:40:07.591Z,25.29
2024-05-09T13:42:37.201Z,25.76
2024-05-09T13:45:05.799Z,25.90
2024-05-09T13:47:35.304Z,26.32
2024-05-09T13:50:05.182Z,26.76
2024-05-09T13:52:33.747Z,27.36
2024-05-09T13:55:02.236Z,27.53
2024-05-09T13:57:30.161Z,27.64
2024-05-09T13:59:59.285Z,27.96
2024-05-09T14:02:27.522Z,28.16
2024-05-09T14:04:55.847Z,28.12
2024-05-09T14:07:28.325Z,27.70
2024-05-09T14:09:58.657Z,27.46
2024-05-09T14:12:29.089Z,27.43
2024-05-09T14:14:57.559Z,27.49
2024-05-09T14:17:25.393Z,27.87
2024-05-09T14:19:53.157Z,27.94
2024-05-09T14:22:21.975Z,27.21
2024-05-09T14:24:51.290Z,26.65
2024-05-09T14:27:19.132Z,26.05
2024-05-09T14:29:52.794Z,25.42
2024-05-09T14:32:26.191Z,24.79
2024-05-09T14:34:54.688Z,24.26
2024-05-09T14:37:23.706Z,23.73
2024-05-09T14:39:56.526Z,23.52
2024-05-09T14:42:26.628Z,23.32
2024-05-09T14:44:55.468Z,23.12
2024-05-09T14:47:23.172Z,23.07
2024-05-09T14:49:51.851Z,23.04
2024-05-09T14:52:26.251Z,23.15
2024-05-09T14:55:00.253Z,23.14
2024-05-09T14:57:30.919Z,22.85
2024-05-09T15:00:29.632Z,22.59
2024-05-09T15:03:06.288Z,22.29
2024-05-09T15:05:35.912Z,21.96
2024-05-09T15:08:04.247Z,21.79
2024-05-09T15:10:35.647Z,21.48
2024-05-09T15:13:08.826Z,21.37
2024-05-09T15:15:39.122Z,21.24
2024-05-09T15:18:08.028Z,21.11
2024-05-09T15:20:38.058Z,20.91
2024-05-09T15:23:07.534Z,20.81
2024-05-09T15:25:36.488Z,20.82
2024-05-09T15:28:05.537Z,20.69
2024-05-09T15:30:36.477Z,20.59
2024-05-09T15:33:06.552Z,20.51
2024-05-09T15:35:36.329Z,20.50
2024-05-09T15:38:05.126Z,20.45
2024-05-09T15:40:39.558Z,20.34
2024-05-09T15:43:11.557Z,20.35
2024-05-09T15:45:41.604Z,20.32
2024-05-09T15:48:15.721Z,20.35
2024-05-09T15:50:44.412Z,20.30
2024-05-09T15:53:13.282Z,20.33
2024-05-09T15:55:43.401Z,20.34
2024-05-09T15:58:13.397Z,20.38
2024-05-09T16:00:43.387Z,20.47
2024-05-09T16:03:15.268Z,20.58
2024-05-09T16:05:44.832Z,20.63
2024-05-09T16:08:13.396Z,20.75
2024-05-09T16:10:46.351Z,20.85
2024-05-09T16:13:17.363Z,21.17
2024-05-09T16:15:46.505Z,21.36
2024-05-09T16:18:16.123Z,21.50
2024-05-09T16:20:47.245Z,21.49
2024-05-09T16:23:16.908Z,21.55
2024-05-09T16:25:53.066Z,21.64
2024-05-09T16:28:26.942Z,21.62
2024-05-09T16:30:56.236Z,21.52
2024-05-09T16:33:26.663Z,21.52
2024-05-09T16:35:55.690Z,21.49
2024-05-09T16:38:30.083Z,21.49
2024-05-09T16:41:00.679Z,21.49
2024-05-09T16:43:31.410Z,21.40
2024-05-09T16:46:00.171Z,21.37
2024-05-09T16:48:29.430Z,21.20
2024-05-09T16:50:58.103Z,21.02
2024-05-09T16:53:27.453Z,20.84
2024-05-09T16:55:55.979Z,20.70
2024-05-09T16:58:23.954Z,20.54
2024-05-09T17:00:53.424Z,20.42
2024-05-09T17:03:21.337Z,20.31
2024-05-09T17:05:58.896Z,20.20
2024-05-09T17:08:27.686Z,20.12
2024-05-09T17:10:56.211Z,20.07
2024-05-09T17:13:24.728Z,19.96
2024-05-09T17:15:53.462Z,19.86
2024-05-09T17:18:24.118Z,19.78
2024-05-09T17:20:58.633Z,19.67
2024-05-09T17:23:28.195Z,19.52
2024-05-09T17:25:57.960Z,19.33
2024-05-09T17:28:26.578Z,19.24
2024-05-09T17:31:00.354Z,19.19
2024-05-09T17:33:29.070Z,19.14
2024-05-09T17:35:57.618Z,19.10
2024-05-09T17:38:29.804Z,19.04
2024-05-09T17:40:59.722Z,18.98
2024-05-09T17:43:28.446Z,18.97
2024-05-09T17:45:57.508Z,18.94
2024-05-09T17:48:30.708Z,18.90
2024-05-09T17:50:58.724Z,18.90
2024-05-09T17:53:31.449Z,18.88
2024-05-09T17:56:08.293Z,18.87
2024-05-09T17:58:37.747Z,18.85
2024-05-09T18:01:08.129Z,18.82
2024-05-09T18:03:38.822Z,18.86
2024-05-09T18:06:06.931Z,18.91
2024-05-09T18:08:35.234Z,18.94
2024-05-09T18:11:03.175Z,18.97
2024-05-09T18:13:33.428Z,18.97
2024-05-09T18:16:03.111Z,18.96
2024-05-09T18:18:33.182Z,18.95
2024-05-09T18:21:02.582Z,18.96
2024-05-09T18:23:31.079Z,18.97
2024-05-09T18:25:59.815Z,18.96
2024-05-09T18:28:29.295Z,18.93
2024-05-09T18:30:59.980Z,18.89
2024-05-09T18:33:28.656Z,18.86
2024-05-09T18:35:56.981Z,18.84
2024-05-09T18:38:29.149Z,18.82
2024-05-09T18:40:58.020Z,18.82
2024-05-09T18:43:42.202Z,18.79
2024-05-09T18:46:13.888Z,18.74
2024-05-09T18:48:49.512Z,18.75
2024-05-09T18:51:18.129Z,18.74
2024-05-09T18:53:45.840Z,18.74
2024-05-09T18:56:14.754Z,18.74
2024-05-09T18:58:44.712Z,18.64
2024-05-09T19:01:13.529Z,18.57
2024-05-09T19:03:41.656Z,18.45
2024-05-09T19:06:10.598Z,18.35
2024-05-09T19:08:50.367Z,18.23
2024-05-09T19:11:22.164Z,18.08
2024-05-09T19:13:52.946Z,17.99
2024-05-09T19:16:28.903Z,17.89
2024-05-09T19:19:05.789Z,17.81
2024-05-09T19:21:39.739Z,17.73
2024-05-09T19:24:09.722Z,17.65
2024-05-09T19:26:42.826Z,17.56
2024-05-09T19:29:11.924Z,17.50
2024-05-09T19:31:40.413Z,17.45
2024-05-09T19:34:08.747Z,17.36
2024-05-09T19:36:37.127Z,17.27
2024-05-09T19:39:10.548Z,17.20
2024-05-09T19:41:45.694Z,17.11
2024-05-09T19:44:13.728Z,17.00
2024-05-09T19:46:42.120Z,16.85
2024-05-09T19:49:11.840Z,16.77
2024-05-09T19:51:40.919Z,16.67
2024-05-09T19:54:26.327Z,16.55
2024-05-09T19:57:16.954Z,16.43
2024-05-09T19:59:44.810Z,16.33
2024-05-09T20:02:33.108Z,16.23
2024-05-09T20:05:02.146Z,16.16
2024-05-09T20:07:31.777Z,16.12
2024-05-09T20:10:05.133Z,16.04
2024-05-09T20:12:34.133Z,15.96
2024-05-09T20:15:02.803Z,15.89
2024-05-09T20:17:36.599Z,15.88
2024-05-09T20:20:24.490Z,15.86
2024-05-09T20:23:03.274Z,15.82
2024-05-09T20:25:33.219Z,15.77
2024-05-09T20:28:09.251Z,15.72
2024-05-09T20:30:38.026Z,15.71
2024-05-09T20:33:08.785Z,15.67
2024-05-09T20:35:38.183Z,15.63
2024-05-09T20:38:06.751Z,15.57
2024-05-09T20:40:38.126Z,15.56
2024-05-09T20:43:08.602Z,15.55
2024-05-09T20:45:37.198Z,15.51
2024-05-09T20:48:10.280Z,15.51
2024-05-09T20:50:41.355Z,15.50
2024-05-09T20:53:13.059Z,15.47
2024-05-09T20:55:46.996Z,15.47
2024-05-09T20:58:17.732Z,15.46
2024-05-09T21:00:54.975Z,15.44
2024-05-09T21:03:26.030Z,15.40
2024-05-09T21:05:56.069Z,15.35
2024-05-09T21:08:31.395Z,15.28
2024-05-09T21:11:00.714Z,15.23
2024-05-09T21:13:32.994Z,15.20
2024-05-09T21:16:25.334Z,15.19
2024-05-09T21:18:54.095Z,15.18
2024-05-09T21:21:23.748Z,15.20
2024-05-09T21:23:53.068Z,15.19
2024-05-09T21:26:23.181Z,15.17
2024-05-09T21:28:51.615Z,15.19
2024-05-09T21:31:20.089Z,15.20
2024-05-09T21:33:50.000Z,15.23
2024-05-09T21:36:18.285Z,15.27
2024-05-09T21:39:06.275Z,15.32
2024-05-09T21:41:35.892Z,15.35
2024-05-09T21:44:04.377Z,15.35
2024-05-09T21:46:34.225Z,15.36
2024-05-09T21:49:02.851Z,15.36
2024-05-09T21:51:34.984Z,15.36
2024-05-09T21:54:04.740Z,15.38
2024-05-09T21:56:33.520Z,15.41
2024-05-09T21:59:02.889Z,15.41
2024-05-09T22:01:31.454Z,15.41
2024-05-09T22:04:01.245Z,15.41
2024-05-09T22:06:38.156Z,15.40
2024-05-09T22:09:05.834Z,15.38
2024-05-09T22:11:34.642Z,15.35
2024-05-09T22:14:03.955Z,15.36
2024-05-09T22:16:32.018Z,15.34
2024-05-09T22:19:02.297Z,15.36
2024-05-09T22:21:38.745Z,15.35
2024-05-09T22:24:09.003Z,15.35
2024-05-09T22:26:37.123Z,15.34
2024-05-09T22:29:09.664Z,15.33
2024-05-09T22:31:41.163Z,15.35
2024-05-09T22:34:17.977Z,15.38
2024-05-09T22:36:47.252Z,15.39
2024-05-09T22:39:20.623Z,15.36
2024-05-09T22:41:51.501Z,15.35
2024-05-09T22:44:20.775Z,15.35
2024-05-09T22:46:50.659Z,15.34
2024-05-09T22:49:19.039Z,15.32
2024-05-09T22:51:48.822Z,15.31
2024-05-09T22:54:16.522Z,15.32
2024-05-09T22:56:46.248Z,15.35
2024-05-09T22:59:15.023Z,15.37
2024-05-09T23:01:43.963Z,15.40
2024-05-09T23:04:12.291Z,15.42
2024-05-09T23:06:45.054Z,15.42
2024-05-09T23:09:14.992Z,15.42
2024-05-09T23:11:44.527Z,15.40
2024-05-09T23:14:14.203Z,15.37
2024-05-09T23:16:50.407Z,15.35
2024-05-09T23:19:23.207Z,15.35
2024-05-09T23:22:11.624Z,15.32
2024-05-09T23:24:45.949Z,15.33
2024-05-09T23:27:16.656Z,15.30
2024-05-09T23:30:06.128Z,15.26
2024-05-09T23:32:37.705Z,15.24
2024-05-09T23:35:06.671Z,15.24
2024-05-09T23:37:34.384Z,15.23
2024-05-09T23:40:09.363Z,15.22
2024-05-09T23:42:38.520Z,15.22
2024-05-09T23:45:26.816Z,15.22
2024-05-09T23:47:56.639Z,15.23
2024-05-09T23:50:33.742Z,15.23
2024-05-09T23:53:04.811Z,15.22
2024-05-09T23:55:33.977Z,15.26
2024-05-09T23:58:02.060Z,15.32
